Time;durP1;ratioP1;P1;durP2;ratioP2;P2;SDS_P1;SDS_P2;PMS_P1;PMS_P2;Temp;Humidity;BMP_temperature;BMP_pressure;BME280_temperature;BME280_humidity;BME280_pressure;Samples;Min_cycle;Max_cycle;Signal;HPM_P1;HPM_P2
2022/12/11 00:00:28;;;;;;;69.93;34.27;;;;;;;0.08;100.00;97763.95;2173811;81;20969;-82
2022/12/11 00:03:28;;;;;;;80.67;35.90;;;;;;;0.04;100.00;97759.13;2173498;81;20925;-84
2022/12/11 00:06:28;;;;;;;79.17;34.70;;;;;;;0.01;100.00;97753.01;2173569;81;20945;-82
2022/12/11 00:09:29;;;;;;;77.17;36.80;;;;;;;0.00;100.00;97752.14;2173902;81;20933;-83
2022/12/11 00:12:29;;;;;;;78.80;35.83;;;;;;;-0.05;100.00;97739.11;2173763;80;21305;-82
2022/12/11 00:15:30;;;;;;;86.53;41.60;;;;;;;-0.04;100.00;97736.14;2173724;81;20981;-84
2022/12/11 00:18:30;;;;;;;73.17;33.67;;;;;;;-0.05;100.00;97736.55;2173972;81;20964;-83
2022/12/11 00:21:30;;;;;;;71.77;33.27;;;;;;;-0.07;100.00;97728.34;2173823;81;21377;-83
2022/12/11 00:24:31;;;;;;;65.80;30.77;;;;;;;-0.08;100.00;97724.90;2173497;81;20964;-82
2022/12/11 00:27:31;;;;;;;62.93;30.20;;;;;;;-0.11;100.00;97726.48;2173473;82;20901;-83
2022/12/11 00:30:32;;;;;;;70.97;33.40;;;;;;;-0.16;100.00;97735.30;2173581;81;20967;-83
2022/12/11 00:33:32;;;;;;;71.23;31.63;;;;;;;-0.25;100.00;97734.09;2173473;82;21292;-83
2022/12/11 00:36:32;;;;;;;67.23;31.80;;;;;;;-0.32;100.00;97730.02;2173459;81;20897;-82
2022/12/11 00:39:33;;;;;;;62.57;30.33;;;;;;;-0.34;100.00;97724.38;2173716;81;20996;-83
2022/12/11 00:42:33;;;;;;;56.80;28.67;;;;;;;-0.31;100.00;97720.64;2173582;81;21328;-84
2022/12/11 00:45:34;;;;;;;54.67;28.17;;;;;;;-0.31;100.00;97720.64;2173403;81;20961;-83
2022/12/11 00:48:34;;;;;;;55.20;29.13;;;;;;;-0.31;100.00;97711.66;2173266;81;20917;-84
2022/12/11 00:51:34;;;;;;;55.40;28.93;;;;;;;-0.28;100.00;97697.67;2173196;81;20945;-83
2022/12/11 00:54:35;;;;;;;49.03;26.03;;;;;;;-0.26;100.00;97694.75;2173301;81;21324;-83
2022/12/11 00:57:35;;;;;;;47.23;25.57;;;;;;;-0.22;100.00;97694.45;2173421;81;20984;-84
2022/12/11 01:00:36;;;;;;;52.00;28.37;;;;;;;-0.25;100.00;97690.50;2173318;81;20989;-84
2022/12/11 01:03:36;;;;;;;55.13;27.53;;;;;;;-0.31;100.00;97688.59;2173431;81;20929;-83
2022/12/11 01:06:36;;;;;;;52.00;27.07;;;;;;;-0.36;100.00;97701.66;2173627;82;20974;-82
2022/12/11 01:12:56;;;;;;;47.10;25.17;;;;;;;-0.44;100.00;97692.41;2174103;80;20965;-83
2022/12/11 01:15:56;;;;;;;55.33;27.13;;;;;;;-0.41;100.00;97692.92;2189776;81;20965;-83
2022/12/11 01:18:57;;;;;;;58.13;28.23;;;;;;;-0.42;100.00;97693.74;2189141;81;21023;-83
2022/12/11 01:21:57;;;;;;;57.07;28.83;;;;;;;-0.41;100.00;97700.20;2190109;81;20912;-84
2022/12/11 01:24:58;;;;;;;55.33;28.20;;;;;;;-0.42;100.00;97701.44;2189897;81;20924;-85
2022/12/11 01:27:58;;;;;;;57.43;29.20;;;;;;;-0.42;100.00;97693.74;2189373;81;20956;-83
2022/12/11 01:30:58;;;;;;;73.20;30.83;;;;;;;-0.42;100.00;97693.74;2189869;81;20976;-84
2022/12/11 01:33:59;;;;;;;60.77;29.23;;;;;;;-0.44;100.00;97696.25;2190062;81;20921;-83
2022/12/11 01:36:59;;;;;;;75.63;33.63;;;;;;;-0.50;100.00;97692.19;2189990;81;21392;-83
2022/12/11 01:40:00;;;;;;;61.70;28.63;;;;;;;-0.52;100.00;97691.66;2190278;81;20960;-84
2022/12/11 01:43:00;;;;;;;66.40;30.63;;;;;;;-0.55;100.00;97686.42;2190211;81;20889;-84
2022/12/11 01:46:00;;;;;;;68.23;30.20;;;;;;;-0.57;100.00;97679.09;2189808;81;20932;-83
2022/12/11 01:49:01;;;;;;;66.77;31.37;;;;;;;-0.60;100.00;97679.85;2190175;81;20921;-85
2022/12/11 01:52:01;;;;;;;61.97;29.23;;;;;;;-0.63;100.00;97687.42;2190175;81;20944;-83
2022/12/11 01:55:02;;;;;;;62.23;31.13;;;;;;;-0.61;100.00;97679.80;2190040;81;21335;-84
2022/12/11 01:58:02;;;;;;;71.33;31.57;;;;;;;-0.56;100.00;97675.70;2190039;81;20936;-84
2022/12/11 02:01:02;;;;;;;63.33;29.07;;;;;;;-0.49;100.00;97676.39;2190122;81;21039;-84
2022/12/11 02:04:03;;;;;;;67.83;32.20;;;;;;;-0.46;100.00;97667.53;2190362;81;20897;-83
2022/12/11 02:07:03;;;;;;;65.50;31.30;;;;;;;-0.43;100.00;97656.11;2190436;81;21348;-84
2022/12/11 02:10:04;;;;;;;64.47;31.13;;;;;;;-0.46;100.00;97644.05;2190177;81;21300;-84
2022/12/11 02:13:04;;;;;;;70.63;32.17;;;;;;;-0.42;100.00;97643.75;2189994;81;20964;-84
2022/12/11 02:16:04;;;;;;;66.93;32.33;;;;;;;-0.40;100.00;97649.80;2173632;81;20921;-83
2022/12/11 02:19:05;;;;;;;70.03;32.00;;;;;;;-0.41;100.00;97657.03;2173261;82;20972;-83
2022/12/11 02:22:05;;;;;;;69.83;33.30;;;;;;;-0.49;100.00;97650.76;2173628;82;20972;-84
2022/12/11 02:25:06;;;;;;;65.30;31.60;;;;;;;-0.54;100.00;97652.28;2173312;81;20968;-84
2022/12/11 02:28:06;;;;;;;69.87;31.97;;;;;;;-0.56;100.00;97664.17;2173057;81;21319;-84
2022/12/11 02:31:06;;;;;;;70.83;33.60;;;;;;;-0.57;100.00;97664.58;2173038;81;20977;-84
2022/12/11 02:34:07;;;;;;;69.37;32.20;;;;;;;-0.58;100.00;97669.66;2173546;81;20970;-86
2022/12/11 02:37:07;;;;;;;66.57;31.30;;;;;;;-0.60;100.00;97672.57;2173014;81;21317;-85
2022/12/11 02:40:08;;;;;;;70.30;30.63;;;;;;;-0.59;100.00;97670.47;2173418;81;21328;-84
2022/12/11 02:43:08;;;;;;;67.13;32.87;;;;;;;-0.56;100.00;97664.17;2173306;82;20976;-85
2022/12/11 02:46:08;;;;;;;68.23;31.60;;;;;;;-0.58;100.00;97666.69;2173469;81;20901;-84
2022/12/11 02:49:09;;;;;;;61.33;29.90;;;;;;;-0.60;100.00;97665.75;2173453;81;20957;-83
2022/12/11 02:52:09;;;;;;;56.17;26.30;;;;;;;-0.62;100.00;97669.95;2173679;82;20925;-85
2022/12/11 02:55:10;;;;;;;56.13;28.33;;;;;;;-0.62;100.00;97670.36;2173439;81;21329;-84
2022/12/11 02:58:10;;;;;;;58.23;28.50;;;;;;;-0.67;100.00;97661.22;2173133;81;21344;-84
2022/12/11 03:01:11;;;;;;;55.93;28.80;;;;;;;-0.65;100.00;97663.44;2173438;81;21086;-83
2022/12/11 03:04:12;;;;;;;51.13;26.30;;;;;;;-0.65;100.00;97654.47;2173000;82;21445;-84
2022/12/11 03:07:12;;;;;;;47.57;24.90;;;;;;;-0.63;100.00;97659.64;2173175;81;20924;-85
2022/12/11 03:10:13;;;;;;;49.60;25.37;;;;;;;-0.63;100.00;97651.95;2173537;81;20968;-84
2022/12/11 03:13:13;;;;;;;52.03;26.77;;;;;;;-0.65;100.00;97650.62;2173337;81;21439;-83
2022/12/11 03:16:13;;;;;;;54.47;28.50;;;;;;;-0.66;100.00;97647.59;2189705;81;21360;-83
2022/12/11 03:19:14;;;;;;;50.70;27.73;;;;;;;-0.66;100.00;97645.03;2190115;81;21372;-83
2022/12/11 03:22:14;;;;;;;52.87;27.43;;;;;;;-0.67;100.00;97642.88;2189841;81;20933;-83
2022/12/11 03:25:14;;;;;;;52.17;26.93;;;;;;;-0.66;100.00;97643.34;2190020;81;20932;-83
2022/12/11 03:28:15;;;;;;;48.47;25.27;;;;;;;-0.67;100.00;97633.03;2189867;81;21376;-84
2022/12/11 03:31:15;;;;;;;52.80;26.93;;;;;;;-0.71;100.00;97625.64;2189931;81;20928;-84
2022/12/11 03:34:16;;;;;;;54.40;27.27;;;;;;;-0.69;100.00;97630.83;2190059;81;20961;-84
2022/12/11 03:37:16;;;;;;;53.80;28.30;;;;;;;-0.70;100.00;97626.11;2190095;81;20988;-83
2022/12/11 03:40:16;;;;;;;53.30;27.23;;;;;;;-0.72;100.00;97630.72;2190191;81;21409;-83
2022/12/11 03:43:17;;;;;;;55.77;26.83;;;;;;;-0.76;100.00;97639.11;2190046;81;21303;-83
2022/12/11 03:46:17;;;;;;;51.13;26.67;;;;;;;-0.80;100.00;97635.56;2190210;81;20893;-83
2022/12/11 03:49:18;;;;;;;54.63;26.53;;;;;;;-0.83;100.00;97643.14;2190367;81;20886;-84
2022/12/11 03:52:18;;;;;;;53.37;27.27;;;;;;;-0.85;100.00;97645.17;2190147;81;21328;-83
2022/12/11 03:55:18;;;;;;;47.87;25.23;;;;;;;-0.86;100.00;97647.27;2190353;81;20929;-84
2022/12/11 03:58:19;;;;;;;46.43;25.60;;;;;;;-0.89;100.00;97642.88;2189430;81;21007;-84
2022/12/11 04:01:19;;;;;;;48.17;25.10;;;;;;;-0.89;100.00;97641.59;2190574;81;20921;-83
2022/12/11 04:04:20;;;;;;;47.17;26.47;;;;;;;-0.90;100.00;97628.73;2190556;81;20956;-83
2022/12/11 04:07:20;;;;;;;48.93;25.50;;;;;;;-0.91;100.00;97624.02;2190538;81;20897;-83
2022/12/11 04:10:20;;;;;;;45.70;26.07;;;;;;;-0.92;100.00;97615.87;2190353;81;20894;-83
2022/12/11 04:13:21;;;;;;;46.53;25.07;;;;;;;-0.90;100.00;97615.52;2190149;81;20932;-83
2022/12/11 04:16:21;;;;;;;44.73;25.13;;;;;;;-0.92;100.00;97614.99;2173818;81;21012;-83
2022/12/11 04:26:00;;;;;;;42.73;23.60;;;;;;;-1.02;100.00;97600.56;2173884;82;21005;-83
2022/12/11 04:29:00;;;;;;;43.13;22.73;;;;;;;-1.02;100.00;97605.69;2173927;82;20977;-83
2022/12/11 04:32:00;;;;;;;46.23;23.50;;;;;;;-1.04;100.00;97597.48;2173023;82;20949;-83
2022/12/11 04:35:01;;;;;;;39.90;22.43;;;;;;;-1.06;100.00;97603.83;2173256;81;20929;-81
2022/12/11 04:38:01;;;;;;;43.27;24.17;;;;;;;-1.07;100.00;97587.13;2173404;81;20957;-82
2022/12/11 04:41:02;;;;;;;42.73;22.47;;;;;;;-1.11;100.00;97592.55;2173613;81;20973;-83
2022/12/11 04:44:02;;;;;;;43.57;24.03;;;;;;;-1.13;100.00;97594.17;2173124;81;21289;-83
2022/12/11 04:47:02;;;;;;;42.30;23.67;;;;;;;-1.14;100.00;97588.59;2173303;81;20929;-83
2022/12/11 04:50:03;;;;;;;45.17;24.33;;;;;;;-1.13;100.00;97588.19;2173472;81;20933;-83
2022/12/11 04:53:03;;;;;;;43.50;22.87;;;;;;;-1.13;100.00;97589.46;2173195;81;21315;-81
2022/12/11 04:56:04;;;;;;;41.20;22.50;;;;;;;-1.14;100.00;97589.00;2172853;81;20894;-81
2022/12/11 04:59:04;;;;;;;37.90;22.00;;;;;;;-1.13;100.00;97585.63;2173484;82;21088;-82
2022/12/11 05:02:04;;;;;;;38.10;20.17;;;;;;;-1.12;100.00;97590.80;2173149;81;21360;-83
2022/12/11 05:05:05;;;;;;;35.53;20.97;;;;;;;-1.14;100.00;97578.34;2173358;81;20901;-82
2022/12/11 05:08:05;;;;;;;36.53;20.93;;;;;;;-1.15;100.00;97577.01;2173471;81;20957;-81
2022/12/11 05:11:06;;;;;;;30.87;17.83;;;;;;;-1.15;100.00;97593.66;2173449;81;21023;-81
2022/12/11 05:14:06;;;;;;;39.10;19.93;;;;;;;-1.16;100.00;97588.06;2175529;81;21352;-81
2022/12/11 05:17:07;;;;;;;36.20;20.47;;;;;;;-1.19;100.00;97581.55;2190289;81;20973;-81
2022/12/11 05:20:07;;;;;;;28.50;16.70;;;;;;;-1.22;100.00;97584.87;2189954;81;21000;-81
2022/12/11 05:23:07;;;;;;;35.47;19.17;;;;;;;-1.27;100.00;97576.56;2190216;81;20972;-82
2022/12/11 05:26:08;;;;;;;35.53;19.37;;;;;;;-1.30;100.00;97568.35;2189549;81;20945;-82
2022/12/11 05:29:08;;;;;;;37.93;19.83;;;;;;;-1.32;100.00;97569.98;2189649;81;20897;-81
2022/12/11 05:32:09;;;;;;;37.07;19.73;;;;;;;-1.35;100.00;97570.74;2190103;81;20988;-81
2022/12/11 05:35:09;;;;;;;35.57;20.33;;;;;;;-1.35;100.00;97565.62;2190036;81;20929;-81
2022/12/11 05:38:09;;;;;;;39.77;20.63;;;;;;;-1.33;100.00;97563.99;2190135;81;20976;-83
2022/12/11 05:41:10;;;;;;;33.57;18.93;;;;;;;-1.31;100.00;97567.48;2190331;81;20960;-83
2022/12/11 05:44:10;;;;;;;35.23;21.17;;;;;;;-1.29;100.00;97567.13;2190502;81;20964;-82
2022/12/11 05:47:11;;;;;;;38.47;20.37;;;;;;;-1.29;100.00;97564.98;2190197;81;20979;-82
2022/12/11 05:50:11;;;;;;;41.77;22.10;;;;;;;-1.30;100.00;97557.70;2190623;81;20973;-82
2022/12/11 05:53:11;;;;;;;39.77;21.77;;;;;;;-1.28;100.00;97560.32;2190837;81;20924;-82
2022/12/11 05:56:12;;;;;;;37.47;21.30;;;;;;;-1.28;100.00;97556.48;2190410;81;20897;-82
2022/12/11 05:59:12;;;;;;;38.67;20.93;;;;;;;-1.32;100.00;97554.22;2190199;81;20992;-84
2022/12/11 06:02:13;;;;;;;36.30;20.23;;;;;;;-1.34;100.00;97556.25;2190439;81;21008;-84
2022/12/11 06:05:13;;;;;;;36.53;19.00;;;;;;;-1.38;100.00;97553.98;2190064;81;20925;-84
2022/12/11 06:08:13;;;;;;;36.60;20.50;;;;;;;-1.41;100.00;97555.16;2191177;81;21403;-85
2022/12/11 06:11:14;;;;;;;35.03;18.73;;;;;;;-1.43;100.00;97558.06;2190470;81;20936;-83
2022/12/11 06:14:14;;;;;;;34.37;19.27;;;;;;;-1.43;100.00;97563.59;2190190;81;21102;-84
2022/12/11 06:17:15;;;;;;;34.57;18.77;;;;;;;-1.49;100.00;97552.72;2190564;81;20937;-83
2022/12/11 06:20:15;;;;;;;31.27;17.90;;;;;;;-1.51;100.00;97551.78;2190338;81;21395;-86
2022/12/11 06:23:15;;;;;;;36.33;19.17;;;;;;;-1.51;100.00;97548.35;2190211;81;21023;-84
2022/12/11 06:26:16;;;;;;;31.80;19.17;;;;;;;-1.51;100.00;97558.59;2190534;81;21040;-84
2022/12/11 06:29:16;;;;;;;28.57;17.30;;;;;;;-1.56;100.00;97555.86;2191117;81;20932;-84
2022/12/11 06:32:17;;;;;;;28.03;16.83;;;;;;;-1.62;100.00;97554.34;2190619;81;21403;-85
2022/12/11 06:35:17;;;;;;;26.03;16.20;;;;;;;-1.67;100.00;97543.06;2190751;81;20973;-84
2022/12/11 06:38:17;;;;;;;29.20;16.87;;;;;;;-1.75;100.00;97537.61;2190561;81;20925;-85
2022/12/11 06:41:18;;;;;;;27.70;17.07;;;;;;;-1.79;100.00;97542.55;2190596;81;21372;-85
2022/12/11 06:44:18;;;;;;;29.60;17.30;;;;;;;-1.82;100.00;97529.64;2190430;81;20929;-86
2022/12/11 06:47:19;;;;;;;31.20;17.73;;;;;;;-1.81;100.00;97537.38;2190719;81;20960;-85
2022/12/11 06:50:19;;;;;;;33.73;19.53;;;;;;;-1.78;100.00;97526.39;2190763;81;20881;-85
2022/12/11 06:53:19;;;;;;;35.27;19.97;;;;;;;-1.75;100.00;97532.91;2190537;81;20932;-85
2022/12/11 06:56:20;;;;;;;33.60;19.17;;;;;;;-1.73;100.00;97535.15;2190710;81;20929;-85
2022/12/11 06:59:21;;;;;;;31.43;16.13;;;;;;;-1.74;100.00;97536.80;2190385;81;21012;-85
2022/12/11 07:02:22;;;;;;;24.17;14.70;;;;;;;-1.76;100.00;97551.62;2190418;81;20956;-84
2022/12/11 07:05:22;;;;;;;27.53;16.00;;;;;;;-1.80;100.00;97546.80;2190492;81;20925;-84
2022/12/11 07:08:22;;;;;;;23.87;14.70;;;;;;;-1.80;100.00;97548.48;2190396;81;20980;-85
2022/12/11 07:11:23;;;;;;;26.50;15.87;;;;;;;-1.81;100.00;97558.25;2190648;81;20945;-84
2022/12/11 07:14:23;;;;;;;26.57;17.07;;;;;;;-1.79;100.00;97561.33;2189044;81;20981;-85
2022/12/11 07:17:24;;;;;;;29.20;16.53;;;;;;;-1.74;100.00;97551.27;2174228;81;20933;-85
2022/12/11 07:20:24;;;;;;;28.57;17.47;;;;;;;-1.70;100.00;97558.29;2174208;81;20918;-85
2022/12/11 07:23:24;;;;;;;31.00;18.20;;;;;;;-1.67;100.00;97563.53;2174035;81;20966;-83
2022/12/11 07:26:25;;;;;;;29.30;18.20;;;;;;;-1.71;100.00;97577.88;2174369;81;20929;-85
2022/12/11 07:29:25;;;;;;;24.90;15.63;;;;;;;-1.73;100.00;97562.01;2174035;81;20963;-85
2022/12/11 07:32:26;;;;;;;26.40;14.17;;;;;;;-1.77;100.00;97553.72;2174175;81;21001;-86
2022/12/11 07:35:26;;;;;;;23.60;14.87;;;;;;;-1.83;100.00;97555.63;2174294;82;20976;-85
2022/12/11 07:38:26;;;;;;;21.77;13.70;;;;;;;-1.89;100.00;97557.95;2174073;81;21348;-85
2022/12/11 07:41:27;;;;;;;19.90;13.03;;;;;;;-1.96;100.00;97570.90;2173957;81;21367;-84
2022/12/11 07:44:27;;;;;;;17.93;11.80;;;;;;;-2.02;99.92;97564.27;2174049;81;20917;-85
2022/12/11 07:47:28;;;;;;;19.80;13.30;;;;;;;-2.01;100.00;97554.50;2173925;81;20965;-85
2022/12/11 07:50:28;;;;;;;18.10;12.00;;;;;;;-2.04;100.00;97557.34;2174378;81;20972;-85
2022/12/11 07:53:28;;;;;;;20.20;13.30;;;;;;;-2.04;100.00;97556.93;2174308;81;21288;-86
2022/12/11 07:56:29;;;;;;;22.43;13.03;;;;;;;-2.04;100.00;97560.77;2174352;81;20926;-85
2022/12/11 07:59:29;;;;;;;18.77;12.40;;;;;;;-2.02;100.00;97569.78;2174379;81;20933;-85
2022/12/11 08:02:30;;;;;;;16.07;11.07;;;;;;;-2.01;100.00;97569.84;2174266;81;21332;-85
2022/12/11 08:05:33;;;;;;;19.13;11.70;;;;;;;-2.03;99.85;97563.80;2174453;81;20969;-85
2022/12/11 08:08:34;;;;;;;17.63;10.97;;;;;;;-2.02;99.82;97567.22;2174356;81;20933;-85
2022/12/11 08:11:34;;;;;;;17.20;11.23;;;;;;;-2.01;99.87;97559.61;2174264;81;20925;-85
2022/12/11 08:14:34;;;;;;;17.13;11.57;;;;;;;-1.97;99.79;97562.76;2175094;81;20925;-85
2022/12/11 08:17:35;;;;;;;17.17;12.17;;;;;;;-1.91;99.86;97565.97;2190697;81;20929;-85
2022/12/11 08:20:35;;;;;;;20.73;12.90;;;;;;;-1.88;99.84;97555.86;2190752;81;20992;-85
2022/12/11 08:23:36;;;;;;;20.80;14.23;;;;;;;-1.85;100.00;97549.58;2190268;81;20976;-86
2022/12/11 08:26:36;;;;;;;23.33;15.70;;;;;;;-1.79;100.00;97555.34;2190894;81;20932;-86
2022/12/11 08:29:36;;;;;;;31.60;19.90;;;;;;;-1.75;100.00;97558.08;2190949;81;20944;-86
2022/12/11 08:32:37;;;;;;;31.83;19.33;;;;;;;-1.73;99.36;97569.28;2190933;81;21027;-86
2022/12/11 08:35:38;;;;;;;31.80;18.53;;;;;;;-1.77;98.53;97557.55;2190609;81;21319;-86
2022/12/11 08:38:38;;;;;;;31.43;19.23;;;;;;;-1.82;98.65;97543.71;2190248;81;20964;-85
2022/12/11 08:41:38;;;;;;;28.97;18.17;;;;;;;-1.82;99.01;97535.63;2190502;81;20957;-86
2022/12/11 08:44:38;;;;;;;29.27;17.13;;;;;;;-1.79;98.37;97543.83;2190447;81;20921;-85
2022/12/11 08:47:39;;;;;;;26.73;14.53;;;;;;;-1.82;97.59;97550.11;2190668;81;20940;-85
2022/12/11 08:50:39;;;;;;;23.17;15.27;;;;;;;-1.84;97.28;97567.08;2190818;81;20964;-86
2022/12/11 08:53:40;;;;;;;20.07;14.63;;;;;;;-1.82;97.22;97557.38;2190858;81;20881;-85
2022/12/11 08:56:40;;;;;;;24.43;15.10;;;;;;;-1.81;96.49;97562.95;2190466;81;20897;-85
2022/12/11 08:59:40;;;;;;;24.97;16.10;;;;;;;-1.82;96.87;97564.17;2190004;81;21035;-84
2022/12/11 09:02:41;;;;;;;31.27;17.87;;;;;;;-1.81;97.23;97554.41;2190247;81;21047;-85
2022/12/11 09:05:41;;;;;;;30.23;17.07;;;;;;;-1.81;97.53;97553.13;2190437;81;20921;-84
2022/12/11 09:08:42;;;;;;;27.80;16.23;;;;;;;-1.79;97.23;97554.94;2190247;81;21308;-84
2022/12/11 09:11:42;;;;;;;22.67;14.10;;;;;;;-1.76;97.03;97551.62;2190528;81;20968;-85
2022/12/11 09:14:42;;;;;;;23.60;15.30;;;;;;;-1.78;95.87;97546.86;2190736;81;20995;-85
2022/12/11 09:17:43;;;;;;;25.37;15.60;;;;;;;-1.83;95.62;97549.23;2190779;81;21307;-85
2022/12/11 09:20:43;;;;;;;22.53;13.37;;;;;;;-1.81;96.12;97539.06;2190801;81;20968;-85
2022/12/11 09:23:44;;;;;;;19.53;13.13;;;;;;;-1.83;95.34;97541.56;2191076;81;21032;-85
2022/12/11 09:26:46;;;;;;;19.40;13.00;;;;;;;-1.83;95.43;97548.36;2191026;81;20943;-86
2022/12/11 09:29:46;;;;;;;18.60;12.63;;;;;;;-1.83;95.36;97548.36;2190844;81;20944;-85
2022/12/11 09:32:46;;;;;;;18.93;12.70;;;;;;;-1.89;95.12;97528.94;2190617;81;21343;-85
2022/12/11 09:35:47;;;;;;;19.97;13.23;;;;;;;-1.94;94.76;97536.44;2190523;81;20959;-83
2022/12/11 09:38:47;;;;;;;19.37;13.60;;;;;;;-1.98;94.40;97535.44;2191089;81;20964;-85
2022/12/11 09:41:48;;;;;;;18.10;12.13;;;;;;;-1.93;94.95;97527.54;2190969;81;20928;-85
2022/12/11 09:44:48;;;;;;;23.67;14.20;;;;;;;-1.92;95.03;97529.69;2190886;81;20932;-85
2022/12/11 09:47:49;;;;;;;21.27;13.80;;;;;;;-1.87;95.19;97526.03;2191073;81;20893;-85
2022/12/11 09:50:49;;;;;;;20.93;14.87;;;;;;;-1.76;95.49;97538.42;2190662;81;20999;-85
2022/12/11 09:53:50;;;;;;;22.20;14.60;;;;;;;-1.79;93.76;97524.64;2190917;81;20889;-84
2022/12/11 09:56:50;;;;;;;22.00;14.80;;;;;;;-1.78;94.15;97514.88;2190831;81;20932;-84
2022/12/11 09:59:50;;;;;;;21.53;14.60;;;;;;;-1.77;93.37;97514.06;2190512;81;21352;-83
2022/12/11 10:02:50;;;;;;;20.53;14.70;;;;;;;-1.80;92.94;97513.55;2190459;81;20929;-83
2022/12/11 10:05:51;;;;;;;27.40;17.37;;;;;;;-1.80;92.84;97516.50;2190429;81;20924;-83
2022/12/11 10:08:51;;;;;;;26.97;16.83;;;;;;;-1.83;93.14;97527.90;2190217;81;20936;-83
2022/12/11 10:11:52;;;;;;;28.43;18.60;;;;;;;-1.82;93.47;97506.22;2190242;81;20945;-84
2022/12/11 10:14:52;;;;;;;30.23;18.80;;;;;;;-1.81;93.75;97511.80;2190463;81;20972;-84
2022/12/11 10:17:53;;;;;;;41.67;26.63;;;;;;;-1.80;94.04;97506.27;2190275;81;21001;-84
2022/12/11 10:20:53;;;;;;;34.43;24.17;;;;;;;-1.81;94.34;97497.73;2190465;81;20988;-84
2022/12/11 10:23:53;;;;;;;31.30;20.03;;;;;;;-1.72;94.46;97511.31;2190361;81;20964;-84
2022/12/11 10:26:54;;;;;;;37.27;23.73;;;;;;;-1.73;92.68;97509.56;2190288;81;20992;-83
2022/12/11 10:29:54;;;;;;;31.07;22.17;;;;;;;-1.82;91.97;97498.95;2190621;81;20928;-84
2022/12/11 10:32:55;;;;;;;24.77;18.53;;;;;;;-1.88;91.40;97493.19;2190489;81;21268;-84
2022/12/11 10:35:55;;;;;;;36.50;21.30;;;;;;;-1.87;92.16;97494.06;2190623;81;21344;-85
2022/12/11 10:38:55;;;;;;;32.93;19.80;;;;;;;-1.87;92.36;97487.67;2190269;81;20933;-83
2022/12/11 10:41:56;;;;;;;32.77;20.37;;;;;;;-1.88;92.72;97485.92;2190597;81;20952;-85
2022/12/11 10:44:56;;;;;;;32.07;21.47;;;;;;;-1.86;92.90;97488.14;2190823;81;20936;-85
2022/12/11 10:47:57;;;;;;;38.63;23.30;;;;;;;-1.81;93.51;97482.38;2190706;81;20960;-85
2022/12/11 10:50:57;;;;;;;33.33;22.87;;;;;;;-1.78;93.01;97476.10;2191042;81;20960;-84
2022/12/11 10:53:57;;;;;;;31.00;22.17;;;;;;;-1.79;92.56;97477.33;2190992;81;20960;-85
2022/12/11 10:56:59;;;;;;;31.50;21.43;;;;;;;-1.84;91.98;97481.39;2190399;81;20973;-86
2022/12/11 10:59:59;;;;;;;30.63;21.57;;;;;;;-1.84;92.13;97475.00;2190904;81;20964;-85
2022/12/11 11:03:00;;;;;;;36.17;23.43;;;;;;;-1.86;92.25;97462.56;2191079;81;20961;-85
2022/12/11 11:06:01;;;;;;;37.23;24.93;;;;;;;-1.82;91.83;97454.19;2191000;81;20897;-85
2022/12/11 11:09:01;;;;;;;36.50;24.73;;;;;;;-1.78;91.24;97466.28;2190820;81;21261;-85
2022/12/11 11:12:01;;;;;;;32.87;23.23;;;;;;;-1.70;90.89;97457.23;2190777;81;20893;-84
2022/12/11 11:15:01;;;;;;;45.07;29.37;;;;;;;-1.67;90.12;97453.11;2191033;81;20920;-85
2022/12/11 11:18:02;;;;;;;45.80;28.43;;;;;;;-1.63;90.97;97452.40;2190609;81;21348;-84
2022/12/11 11:21:02;;;;;;;39.93;26.13;;;;;;;-1.47;90.97;97454.23;2190705;81;20934;-85
2022/12/11 11:24:03;;;;;;;42.63;26.57;;;;;;;-1.48;89.76;97462.73;2190974;81;20945;-84
2022/12/11 11:27:03;;;;;;;36.37;20.87;;;;;;;-1.43;89.72;97454.41;2191040;81;20925;-85
2022/12/11 11:30:04;;;;;;;33.90;23.23;;;;;;;-1.47;88.81;97448.71;2190678;81;20997;-84
2022/12/11 11:33:04;;;;;;;37.30;24.50;;;;;;;-1.50;87.98;97452.44;2190807;81;21320;-85
2022/12/11 11:36:04;;;;;;;33.73;22.83;;;;;;;-1.50;88.57;97451.16;2190561;81;20964;-84
2022/12/11 11:39:05;;;;;;;34.27;23.20;;;;;;;-1.51;88.33;97448.14;2190847;81;20977;-85
2022/12/11 11:42:05;;;;;;;32.07;22.60;;;;;;;-1.52;88.80;97442.55;2191159;81;20952;-85
2022/12/11 11:45:06;;;;;;;35.23;24.90;;;;;;;-1.57;88.81;97440.23;2191080;81;20937;-86
2022/12/11 11:48:06;;;;;;;37.83;25.07;;;;;;;-1.63;89.00;97437.45;2191018;81;20952;-85
2022/12/11 11:51:07;;;;;;;49.23;29.50;;;;;;;-1.64;88.72;97435.71;2191298;81;20932;-85
2022/12/11 11:54:07;;;;;;;43.57;27.57;;;;;;;-1.63;89.34;97423.38;2191084;81;20956;-85
2022/12/11 11:57:07;;;;;;;44.73;29.77;;;;;;;-1.67;88.99;97420.25;2190716;81;20952;-84
2022/12/11 12:00:09;;;;;;;45.27;29.93;;;;;;;-1.73;89.35;97420.90;2190682;81;20960;-84
2022/12/11 12:03:08;;;;;;;43.23;29.90;;;;;;;-1.72;89.81;97432.87;2191178;81;20924;-86
2022/12/11 12:06:08;;;;;;;47.57;31.10;;;;;;;-1.70;90.01;97423.98;2191216;81;20953;-85
2022/12/11 12:09:10;;;;;;;42.80;29.03;;;;;;;-1.71;90.15;97436.30;2191429;81;20963;-84
2022/12/11 12:12:09;;;;;;;47.03;30.63;;;;;;;-1.73;89.77;97434.09;2191462;81;20937;-85
2022/12/11 12:15:17;;;;;;;41.23;28.87;;;;;;;-1.75;89.85;97421.62;2191599;81;20925;-87
2022/12/11 12:18:12;;;;;;;41.47;28.83;;;;;;;-1.76;90.04;97424.59;2165213;82;21020;-83
2022/12/11 12:21:13;;;;;;;42.23;28.90;;;;;;;-1.73;90.58;97422.17;2184123;82;20976;-85
2022/12/11 12:24:13;;;;;;;43.70;29.37;;;;;;;-1.73;90.91;97420.90;2184214;82;20973;-86
2022/12/11 12:27:14;;;;;;;49.30;30.13;;;;;;;-1.73;91.21;97420.03;2184276;82;20964;-85
2022/12/11 12:30:14;;;;;;;48.47;30.17;;;;;;;-1.77;91.53;97420.70;2184441;82;20923;-85
2022/12/11 12:33:14;;;;;;;47.50;29.40;;;;;;;-1.76;91.82;97422.03;2184169;82;21368;-84
2022/12/11 12:36:14;;;;;;;45.30;27.57;;;;;;;-1.73;91.67;97426.02;2183672;82;21020;-85
2022/12/11 12:39:15;;;;;;;48.50;26.87;;;;;;;-1.70;91.13;97429.09;2183975;82;21019;-86
2022/12/11 12:42:15;;;;;;;45.53;25.87;;;;;;;-1.68;90.74;97428.74;2184113;81;20890;-84
2022/12/11 12:45:16;;;;;;;41.97;25.73;;;;;;;-1.70;89.92;97428.69;2184330;82;21008;-85
2022/12/11 12:48:16;;;;;;;40.17;26.00;;;;;;;-1.69;90.34;97427.88;2184015;82;21020;-85
2022/12/11 12:51:17;;;;;;;39.10;25.33;;;;;;;-1.72;89.97;97427.76;2181955;82;21038;-84
2022/12/11 12:54:17;;;;;;;35.90;23.77;;;;;;;-1.72;90.24;97417.94;2182099;82;21039;-85
2022/12/11 12:57:17;;;;;;;33.83;23.57;;;;;;;-1.83;88.96;97412.39;2181860;82;21390;-85
2022/12/11 13:00:18;;;;;;;32.63;22.07;;;;;;;-1.94;89.56;97451.63;2182042;82;20995;-84
2022/12/11 13:03:21;;;;;;;37.13;24.70;;;;;;;-2.00;90.07;97420.72;2182183;82;20964;-83
2022/12/11 13:06:18;;;;;;;37.60;23.10;;;;;;;-2.02;90.28;97428.73;2182070;82;21047;-85
2022/12/11 13:09:19;;;;;;;35.23;24.10;;;;;;;-2.05;90.72;97419.67;2181665;82;21015;-83
2022/12/11 13:12:19;;;;;;;35.07;23.83;;;;;;;-2.02;90.97;97421.06;2181786;82;20983;-83
2022/12/11 13:15:20;;;;;;;33.23;22.70;;;;;;;-1.98;90.94;97426.76;2183026;82;20976;-84
2022/12/11 13:18:20;;;;;;;38.70;24.57;;;;;;;-1.99;91.03;97427.57;2188918;81;20965;-84
2022/12/11 13:21:21;;;;;;;32.53;21.63;;;;;;;-1.99;91.38;97431.41;2188615;81;20972;-84
2022/12/11 13:24:23;;;;;;;36.33;22.47;;;;;;;-2.06;91.26;97437.52;2170608;81;20984;-84
2022/12/11 13:27:23;;;;;;;33.10;21.50;;;;;;;-2.16;91.49;97427.34;2188394;81;21374;-85
2022/12/11 13:30:24;;;;;;;34.70;23.17;;;;;;;-2.24;91.93;97432.56;2188451;81;20968;-83
2022/12/11 13:33:24;;;;;;;43.17;27.57;;;;;;;-2.32;92.70;97429.70;2188240;81;21023;-83
2022/12/11 13:36:25;;;;;;;42.93;25.67;;;;;;;-2.41;92.99;97439.98;2188055;81;21328;-83
2022/12/11 13:39:26;;;;;;;46.93;26.63;;;;;;;-2.48;93.70;97451.64;2188225;81;20984;-83
2022/12/11 13:42:25;;;;;;;47.40;27.10;;;;;;;-2.49;93.95;97442.63;2188622;81;21002;-83
2022/12/11 13:45:26;;;;;;;40.50;26.37;;;;;;;-2.49;94.29;97437.53;2188648;81;21371;-82
2022/12/11 13:48:26;;;;;;;50.57;28.93;;;;;;;-2.49;94.36;97434.56;2190051;81;20944;-83
2022/12/11 13:51:27;;;;;;;43.67;27.13;;;;;;;-2.49;94.62;97430.73;2189950;81;20968;-82